Terminal Aerodrome Forecast
Issued by NWS Bismarck, ND

Home | Current Version | Previous Version | Graphics & Text | Print | Product List | Glossary Off
Versions: 1 2 3 4 5 6 7 8 9 10 11 12 13 14 15 16 17 18 19 20 21 22 23 24 25 26 27

424
FTUS43 KBIS 081730
TAFBIS
TAF
KBIS 081730Z 0818/0918 30013KT P6SM BKN015
     FM082100 31010KT P6SM SCT015
     FM090200 31005KT P6SM BKN080
     FM090500 31004KT P6SM BKN025
     FM091300 VRB03KT P6SM BKN015
     FM091700 VRB03KT P6SM BKN020=

USA.gov is the U.S. government's official web portal to all federal, state and local government web resources and services.